Norwood, Massachusetts
Current Conditions -  °F | °C
As of 12:53 PM on Saturday 25 Oct 2014 (Local Time) from KOWD Reporting Station
Clear Clear  
Wind Chill: 18°   Ceiling: Unl
Heat Index: 18°   Visibility: 10mi
Dew Point:   Wind: 10mph
Humidity: 41%   Direction: 260°W
Pressure: 29.67"   Gusts: 18mph
Location:  42.2°N, 71.2°W
Report Text: KOWD 251653Z 26009G16KT 10SM CLR 18/04 A2967 RMK AO2 SLP045 T01780044
Loading
Personal Weather Stations






























Interactive Weather Map
Tropical Storm Tracking
New forecast layout! Learn more

10-Day Weather Forecast

Advertisements
Track Severe Weather on mobile